createdAt,value
2022-11-10T00:00:27.139Z,18.63
2022-11-10T00:02:18.871Z,17.02
2022-11-10T00:04:10.952Z,16.42
2022-11-10T00:06:05.282Z,15.57
2022-11-10T00:07:56.980Z,16.45
2022-11-10T00:09:48.874Z,15.13
2022-11-10T00:11:40.969Z,16.00
2022-11-10T00:13:35.372Z,16.17
2022-11-10T00:15:45.387Z,16.08
2022-11-10T00:17:36.566Z,15.05
2022-11-10T00:19:29.048Z,15.98
2022-11-10T00:21:22.693Z,14.20
2022-11-10T00:23:14.972Z,14.30
2022-11-10T00:25:07.575Z,15.05
2022-11-10T00:27:00.178Z,14.85
2022-11-10T00:28:51.724Z,16.10
2022-11-10T00:30:46.821Z,15.43
2022-11-10T00:32:38.994Z,15.00
2022-11-10T00:34:30.875Z,15.75
2022-11-10T00:36:23.864Z,15.13
2022-11-10T00:38:15.761Z,15.43
2022-11-10T00:40:08.223Z,16.00
2022-11-10T00:42:00.284Z,15.77
2022-11-10T00:43:52.614Z,15.93
2022-11-10T00:45:45.180Z,15.50
2022-11-10T00:47:36.703Z,15.98
2022-11-10T00:49:28.951Z,15.43
2022-11-10T00:51:24.843Z,16.20
2022-11-10T00:53:16.881Z,16.73
2022-11-10T00:55:09.605Z,14.80
2022-11-10T00:57:01.024Z,16.92
2022-11-10T00:58:53.063Z,16.70
2022-11-10T01:00:45.637Z,14.75
2022-11-10T01:02:37.420Z,15.05
2022-11-10T01:04:29.327Z,16.42
2022-11-10T01:06:22.943Z,15.73
2022-11-10T01:08:16.110Z,16.25
2022-11-10T01:10:08.595Z,16.02
2022-11-10T01:12:00.838Z,15.75
2022-11-10T01:13:54.025Z,17.20
2022-11-10T01:15:46.169Z,17.60
2022-11-10T01:17:38.146Z,15.93
2022-11-10T01:19:31.077Z,16.25
2022-11-10T01:21:24.183Z,16.70
2022-11-10T01:23:17.889Z,16.27
2022-11-10T01:25:10.497Z,17.48
2022-11-10T01:27:03.022Z,16.23
2022-11-10T01:28:55.959Z,15.63
2022-11-10T01:30:47.681Z,16.63
2022-11-10T01:32:39.292Z,17.30
2022-11-10T01:34:31.076Z,14.88
2022-11-10T01:36:22.533Z,15.40
2022-11-10T01:38:14.621Z,17.25
2022-11-10T01:40:09.537Z,16.55
2022-11-10T01:42:01.411Z,16.77
2022-11-10T01:43:53.020Z,16.02
2022-11-10T01:45:48.267Z,15.23
2022-11-10T01:47:39.868Z,16.38
2022-11-10T01:49:33.765Z,15.45
2022-11-10T01:51:29.035Z,13.63
2022-11-10T01:53:24.955Z,15.57
2022-11-10T01:55:19.104Z,15.82
2022-11-10T01:57:14.063Z,15.20
2022-11-10T01:59:18.883Z,14.93
2022-11-10T02:01:11.506Z,15.05
2022-11-10T02:03:07.011Z,14.77
2022-11-10T02:05:00.885Z,14.75
2022-11-10T02:06:53.394Z,15.18
2022-11-10T02:08:46.224Z,15.20
2022-11-10T02:10:39.575Z,15.63
2022-11-10T02:12:38.059Z,16.15
2022-11-10T02:14:30.825Z,14.70
2022-11-10T02:16:23.107Z,16.27
2022-11-10T02:18:14.852Z,15.23
2022-11-10T02:20:10.717Z,16.42
2022-11-10T02:22:03.773Z,16.17
2022-11-10T02:23:55.898Z,15.65
2022-11-10T02:25:48.009Z,16.27
2022-11-10T02:27:39.820Z,15.75
2022-11-10T02:29:31.588Z,15.88
2022-11-10T02:31:23.934Z,14.75
2022-11-10T02:33:17.894Z,16.15
2022-11-10T02:35:10.254Z,15.07
2022-11-10T02:37:04.067Z,15.85
2022-11-10T02:38:55.976Z,14.25
2022-11-10T02:40:47.644Z,15.50
2022-11-10T02:42:39.815Z,15.40
2022-11-10T02:44:31.337Z,15.55
2022-11-10T02:46:23.540Z,15.52
2022-11-10T02:48:16.488Z,15.80
2022-11-10T02:50:09.216Z,15.00
2022-11-10T02:52:01.104Z,15.38
2022-11-10T02:53:54.433Z,16.23
2022-11-10T02:55:46.639Z,15.32
2022-11-10T02:57:39.163Z,14.88
2022-11-10T02:59:31.644Z,15.35
2022-11-10T03:01:23.352Z,17.30
2022-11-10T03:03:15.593Z,17.05
2022-11-10T03:05:07.600Z,15.50
2022-11-10T03:06:59.511Z,14.55
2022-11-10T03:08:53.143Z,16.33
2022-11-10T03:10:45.674Z,20.35
2022-11-10T03:12:37.860Z,21.75
2022-11-10T03:14:29.393Z,15.63
2022-11-10T03:16:21.431Z,16.42
2022-11-10T03:18:13.345Z,16.42
2022-11-10T03:20:06.011Z,15.90
2022-11-10T03:21:58.673Z,17.85
2022-11-10T03:23:50.383Z,18.35
2022-11-10T03:25:43.732Z,19.67
2022-11-10T03:27:35.850Z,20.60
2022-11-10T03:29:27.647Z,18.60
2022-11-10T03:31:19.644Z,19.30
2022-11-10T03:33:11.334Z,18.33
2022-11-10T03:35:03.259Z,17.52
2022-11-10T03:36:55.072Z,19.60
2022-11-10T03:38:47.478Z,18.08
2022-11-10T03:41:11.968Z,18.67
2022-11-10T03:42:52.926Z,25.20
2022-11-10T03:44:44.503Z,34.58
2022-11-10T03:46:36.839Z,49.03
2022-11-10T03:48:28.532Z,31.30
2022-11-10T03:50:20.841Z,22.73
2022-11-10T03:52:12.381Z,21.98
2022-11-10T03:54:04.496Z,20.42
2022-11-10T03:55:56.438Z,19.50
2022-11-10T03:57:48.325Z,21.08
2022-11-10T03:59:41.623Z,21.48
2022-11-10T04:01:33.626Z,22.90
2022-11-10T04:03:26.151Z,20.85
2022-11-10T04:05:35.624Z,23.42
2022-11-10T04:07:44.906Z,22.70
2022-11-10T04:09:36.547Z,23.98
2022-11-10T04:11:46.828Z,23.27
2022-11-10T04:13:56.420Z,24.35
2022-11-10T04:15:49.557Z,21.60
2022-11-10T04:17:41.806Z,20.30
2022-11-10T04:19:33.675Z,21.60
2022-11-10T04:21:25.380Z,21.00
2022-11-10T04:23:31.123Z,22.33
2022-11-10T04:25:23.512Z,22.73
2022-11-10T04:27:14.105Z,65.88
2022-11-10T04:29:08.771Z,26.77
2022-11-10T04:31:02.327Z,23.10
2022-11-10T04:32:55.179Z,23.00
2022-11-10T04:34:47.002Z,24.25
2022-11-10T04:36:41.615Z,23.10
2022-11-10T04:38:33.310Z,22.92
2022-11-10T04:40:25.102Z,22.13
2022-11-10T04:42:16.744Z,24.20
2022-11-10T04:44:08.974Z,51.17
2022-11-10T04:46:02.644Z,68.68
2022-11-10T04:47:54.667Z,25.13
2022-11-10T04:49:46.231Z,26.83
2022-11-10T04:51:40.271Z,24.45
2022-11-10T04:53:31.932Z,24.17
2022-11-10T04:55:23.954Z,24.23
2022-11-10T04:57:15.588Z,25.50
2022-11-10T04:59:07.570Z,22.35
2022-11-10T05:00:59.106Z,24.88
2022-11-10T05:02:52.239Z,25.17
2022-11-10T05:04:44.525Z,24.08
2022-11-10T05:06:36.399Z,25.75
2022-11-10T05:08:28.254Z,27.20
2022-11-10T05:10:20.719Z,28.15
2022-11-10T05:12:12.369Z,26.38
2022-11-10T05:14:04.387Z,27.38
2022-11-10T05:15:56.269Z,26.75
2022-11-10T05:17:52.087Z,26.15
2022-11-10T05:19:43.745Z,29.70
2022-11-10T05:21:36.027Z,27.45
2022-11-10T05:23:39.568Z,28.88
2022-11-10T05:25:32.071Z,30.30
2022-11-10T05:27:24.042Z,29.38
2022-11-10T05:29:15.708Z,31.83
2022-11-10T05:31:07.807Z,30.23
2022-11-10T05:33:01.504Z,30.60
2022-11-10T05:34:53.309Z,29.00
2022-11-10T05:36:45.359Z,32.10
2022-11-10T05:38:42.143Z,30.10
2022-11-10T05:40:36.126Z,25.02
2022-11-10T05:42:27.927Z,26.90
2022-11-10T05:44:20.431Z,28.60
2022-11-10T05:46:11.925Z,27.25
2022-11-10T05:48:05.856Z,29.20
2022-11-10T05:49:57.527Z,28.33
2022-11-10T05:51:49.287Z,30.52
2022-11-10T05:53:41.029Z,30.13
2022-11-10T05:55:32.844Z,28.98
2022-11-10T05:57:24.443Z,29.30
2022-11-10T05:59:16.139Z,31.95
2022-11-10T06:01:08.050Z,40.33
2022-11-10T06:03:02.361Z,36.42
2022-11-10T06:04:55.973Z,34.53
2022-11-10T06:06:47.889Z,33.00
2022-11-10T06:08:39.536Z,26.58
2022-11-10T06:10:31.738Z,28.55
2022-11-10T06:12:25.105Z,29.40
2022-11-10T06:14:17.173Z,29.70
2022-11-10T06:16:09.241Z,31.98
2022-11-10T06:18:01.453Z,33.05
2022-11-10T06:19:53.118Z,31.08
2022-11-10T06:21:46.623Z,33.15
2022-11-10T06:23:38.247Z,29.17
2022-11-10T06:25:31.399Z,27.65
2022-11-10T06:27:23.066Z,28.88
2022-11-10T06:29:15.279Z,27.17
2022-11-10T06:31:06.883Z,31.15
2022-11-10T06:32:59.004Z,29.92
2022-11-10T06:34:50.742Z,29.45
2022-11-10T06:36:42.731Z,27.83
2022-11-10T06:38:36.011Z,30.52
2022-11-10T06:40:28.856Z,28.73
2022-11-10T06:42:20.670Z,28.90
2022-11-10T06:44:13.341Z,30.50
2022-11-10T06:46:05.115Z,30.17
2022-11-10T06:48:01.482Z,28.30
2022-11-10T06:49:54.882Z,29.50
2022-11-10T06:51:46.751Z,30.58
2022-11-10T06:53:39.873Z,26.20
2022-11-10T06:55:31.997Z,28.58
2022-11-10T06:57:23.742Z,27.42
2022-11-10T06:59:15.758Z,26.90
2022-11-10T07:01:07.515Z,29.40
2022-11-10T07:03:03.930Z,27.38
2022-11-10T07:04:55.279Z,29.80
2022-11-10T07:06:48.027Z,26.77
2022-11-10T07:08:41.408Z,25.27
2022-11-10T07:10:33.310Z,26.42
2022-11-10T07:12:25.308Z,28.38
2022-11-10T07:14:17.403Z,27.40
2022-11-10T07:16:09.395Z,28.08
2022-11-10T07:18:02.670Z,28.55
2022-11-10T07:19:54.696Z,30.65
2022-11-10T07:21:46.838Z,30.20
2022-11-10T07:23:38.647Z,27.88
2022-11-10T07:25:33.794Z,29.50
2022-11-10T07:27:25.505Z,33.40
2022-11-10T07:29:17.583Z,29.00
2022-11-10T07:31:09.515Z,31.65
2022-11-10T07:33:02.745Z,31.70
2022-11-10T07:34:54.542Z,37.83
2022-11-10T07:36:46.479Z,32.55
2022-11-10T07:38:37.980Z,35.95
2022-11-10T07:40:32.155Z,34.00
2022-11-10T07:42:23.904Z,32.60
2022-11-10T07:44:16.000Z,31.38
2022-11-10T07:46:07.789Z,30.80
2022-11-10T07:48:07.131Z,31.30
2022-11-10T07:50:05.415Z,32.78
2022-11-10T07:52:04.135Z,30.85
2022-11-10T07:53:55.960Z,31.92
2022-11-10T07:55:49.466Z,31.17
2022-11-10T07:57:41.432Z,33.42
2022-11-10T07:59:33.200Z,33.58
2022-11-10T08:01:25.037Z,31.70
2022-11-10T08:03:19.649Z,33.95
2022-11-10T08:05:11.912Z,33.97
2022-11-10T08:07:03.950Z,36.03
2022-11-10T08:08:55.902Z,35.17
2022-11-10T08:10:49.346Z,34.83
2022-11-10T08:12:41.038Z,33.70
2022-11-10T08:14:33.118Z,35.13
2022-11-10T08:16:25.211Z,34.92
2022-11-10T08:18:19.656Z,36.10
2022-11-10T08:20:12.103Z,33.97
2022-11-10T08:22:04.055Z,33.67
2022-11-10T08:23:56.176Z,33.28
2022-11-10T08:25:53.053Z,35.13
2022-11-10T08:27:44.616Z,34.38
2022-11-10T08:29:36.759Z,33.90
2022-11-10T08:31:28.966Z,31.02
2022-11-10T08:33:22.951Z,34.38
2022-11-10T08:35:15.229Z,34.42
2022-11-10T08:37:10.127Z,31.75
2022-11-10T08:39:02.092Z,32.42
2022-11-10T08:40:58.244Z,30.83
2022-11-10T08:42:49.833Z,30.92
2022-11-10T08:44:41.948Z,28.83
2022-11-10T08:46:33.463Z,29.30
2022-11-10T08:48:25.566Z,30.17
2022-11-10T08:50:17.671Z,29.13
2022-11-10T08:52:11.197Z,28.52
2022-11-10T08:54:02.865Z,28.50
2022-11-10T08:56:00.360Z,28.08
2022-11-10T08:57:52.189Z,28.92
2022-11-10T08:59:44.064Z,27.95
2022-11-10T09:01:35.836Z,27.27
2022-11-10T09:03:27.735Z,28.25
2022-11-10T09:05:19.621Z,25.75
2022-11-10T09:07:11.575Z,26.20
2022-11-10T09:09:03.353Z,27.50
2022-11-10T09:10:57.132Z,26.48
2022-11-10T09:12:49.164Z,24.73
2022-11-10T09:14:41.344Z,23.13
2022-11-10T09:16:33.028Z,22.10
2022-11-10T09:18:25.326Z,24.98
2022-11-10T09:20:17.382Z,24.17
2022-11-10T09:22:09.979Z,23.13
2022-11-10T09:24:02.195Z,19.17
2022-11-10T09:25:57.047Z,21.25
2022-11-10T09:27:49.535Z,18.17
2022-11-10T09:29:41.799Z,18.42
2022-11-10T09:31:33.235Z,18.08
2022-11-10T09:33:25.577Z,16.88
2022-11-10T09:35:18.044Z,18.73
2022-11-10T09:37:09.819Z,17.52
2022-11-10T09:39:01.730Z,18.42
2022-11-10T09:41:02.940Z,16.52
2022-11-10T09:42:57.526Z,18.08
2022-11-10T09:44:54.822Z,17.42
2022-11-10T09:46:50.636Z,17.98
2022-11-10T09:48:46.944Z,17.10
2022-11-10T09:50:43.269Z,18.17
2022-11-10T09:52:38.259Z,17.92
2022-11-10T09:54:38.334Z,16.60
2022-11-10T09:56:34.504Z,17.70
2022-11-10T09:58:33.185Z,17.08
2022-11-10T10:00:25.022Z,15.07
2022-11-10T10:02:29.840Z,17.27
2022-11-10T10:04:44.676Z,17.10
2022-11-10T10:07:10.226Z,16.98
2022-11-10T10:09:12.401Z,17.80
2022-11-10T10:11:19.953Z,19.40
2022-11-10T10:13:37.481Z,18.67
2022-11-10T10:15:38.442Z,17.05
2022-11-10T10:17:41.327Z,18.55
2022-11-10T10:19:42.457Z,18.63
2022-11-10T10:21:46.379Z,17.80
2022-11-10T10:25:55.572Z,17.38
2022-11-10T10:27:52.792Z,18.02
2022-11-10T10:29:49.319Z,19.50
2022-11-10T10:31:44.445Z,18.73
2022-11-10T10:33:36.117Z,19.10
2022-11-10T10:35:29.660Z,18.20
2022-11-10T10:37:25.641Z,18.48
2022-11-10T10:39:23.538Z,18.55
2022-11-10T10:41:23.966Z,18.90
2022-11-10T10:43:15.877Z,18.50
2022-11-10T10:45:18.246Z,17.55
2022-11-10T10:47:10.085Z,20.67
2022-11-10T10:49:28.157Z,22.08
2022-11-10T10:51:31.609Z,18.48
2022-11-10T10:53:24.423Z,17.15
2022-11-10T10:55:16.262Z,16.67
2022-11-10T10:57:22.422Z,17.75
2022-11-10T10:59:22.169Z,17.73
2022-11-10T11:01:27.188Z,18.02
2022-11-10T11:03:27.440Z,16.80
2022-11-10T11:05:20.849Z,14.82
2022-11-10T11:07:22.918Z,15.98
2022-11-10T11:09:20.116Z,16.25
2022-11-10T11:11:12.960Z,16.23
2022-11-10T11:13:16.021Z,16.63
2022-11-10T11:15:22.199Z,17.52
2022-11-10T11:17:20.168Z,13.57
2022-11-10T11:19:12.458Z,10.93
2022-11-10T11:21:14.979Z,10.70
2022-11-10T11:23:18.110Z,12.60
2022-11-10T11:25:19.933Z,12.30
2022-11-10T11:27:19.397Z,13.00
2022-11-10T11:29:26.497Z,12.63
2022-11-10T11:31:28.382Z,13.85
2022-11-10T11:33:32.084Z,12.52
2022-11-10T11:35:33.479Z,12.77
2022-11-10T11:37:34.086Z,11.38
2022-11-10T11:39:39.398Z,11.70
2022-11-10T11:41:40.450Z,12.80
2022-11-10T11:43:57.642Z,13.00
2022-11-10T11:45:58.818Z,11.55
2022-11-10T11:48:15.953Z,13.00
2022-11-10T11:50:24.237Z,12.15
2022-11-10T11:52:24.851Z,11.52
2022-11-10T11:54:29.045Z,12.82
2022-11-10T11:56:25.453Z,13.02
2022-11-10T11:58:33.779Z,12.15
2022-11-10T12:00:25.871Z,11.88
2022-11-10T12:02:45.565Z,12.05
2022-11-10T12:04:46.447Z,12.55
2022-11-10T12:06:56.047Z,11.52
2022-11-10T12:08:58.351Z,10.75
2022-11-10T12:11:01.014Z,9.98
2022-11-10T12:13:25.607Z,11.45
2022-11-10T12:15:29.983Z,10.85
2022-11-10T12:17:28.617Z,11.23
2022-11-10T12:19:30.353Z,12.82
2022-11-10T12:21:25.980Z,11.05
2022-11-10T12:23:28.810Z,10.32
2022-11-10T12:25:27.532Z,10.55
2022-11-10T12:27:25.276Z,11.30
2022-11-10T12:29:26.585Z,11.02
2022-11-10T12:31:22.453Z,10.45
2022-11-10T12:33:21.839Z,11.07
2022-11-10T12:35:19.242Z,10.45
2022-11-10T12:37:17.493Z,10.20
2022-11-10T12:39:19.892Z,10.80
2022-11-10T12:41:16.706Z,11.55
2022-11-10T12:43:19.162Z,12.15
2022-11-10T12:45:22.474Z,11.77
2022-11-10T12:47:20.324Z,12.70
2022-11-10T12:49:18.503Z,12.35
2022-11-10T12:51:21.775Z,11.60
2022-11-10T12:53:23.101Z,12.43
2022-11-10T12:55:16.931Z,12.63
2022-11-10T12:57:14.506Z,11.90
2022-11-10T12:59:24.915Z,11.90
2022-11-10T13:01:19.425Z,12.52
2022-11-10T13:03:17.077Z,11.88
2022-11-10T13:05:24.478Z,13.60
2022-11-10T13:07:25.720Z,13.50
2022-11-10T13:09:26.405Z,12.48
2022-11-10T13:11:29.088Z,12.90
2022-11-10T13:13:21.480Z,13.48
2022-11-10T13:15:52.381Z,12.98
2022-11-10T13:18:02.810Z,13.27
2022-11-10T13:19:58.990Z,13.75
2022-11-10T13:22:07.672Z,12.35
2022-11-10T13:24:23.036Z,13.73
2022-11-10T13:26:56.060Z,14.10
2022-11-10T13:29:00.446Z,14.10
2022-11-10T13:30:54.399Z,14.65
2022-11-10T13:32:46.474Z,15.98
2022-11-10T13:34:42.495Z,14.00
2022-11-10T13:36:43.354Z,14.07
2022-11-10T13:38:38.326Z,16.05
2022-11-10T13:40:34.177Z,15.07
2022-11-10T13:42:26.403Z,14.93
2022-11-10T13:44:28.892Z,13.73
2022-11-10T13:46:21.571Z,15.27
2022-11-10T13:48:27.772Z,14.43
2022-11-10T13:50:31.084Z,14.55
2022-11-10T13:52:30.728Z,14.93
2022-11-10T13:54:47.180Z,13.57
2022-11-10T13:57:00.103Z,14.50
2022-11-10T13:58:52.484Z,13.77
2022-11-10T14:00:51.040Z,15.98
2022-11-10T14:02:49.261Z,13.43
2022-11-10T14:04:43.981Z,16.67
2022-11-10T14:06:45.994Z,15.57
2022-11-10T14:08:47.735Z,16.50
2022-11-10T14:10:46.161Z,15.40
2022-11-10T14:12:44.355Z,15.70
2022-11-10T14:14:47.350Z,15.07
2022-11-10T14:16:42.874Z,16.73
2022-11-10T14:18:41.391Z,17.60
2022-11-10T14:20:41.715Z,18.23
2022-11-10T14:22:39.244Z,21.38
2022-11-10T14:24:37.291Z,19.40
2022-11-10T14:26:36.140Z,20.73
2022-11-10T14:28:29.035Z,21.20
2022-11-10T14:30:25.017Z,19.42
2022-11-10T14:32:21.703Z,19.63
2022-11-10T14:34:17.305Z,18.77
2022-11-10T14:36:09.880Z,17.30
2022-11-10T14:38:02.988Z,16.20
2022-11-10T14:39:56.842Z,17.05
2022-11-10T14:41:49.927Z,15.10
2022-11-10T14:43:41.995Z,14.57
2022-11-10T14:45:34.092Z,16.10
2022-11-10T14:47:31.420Z,16.02
2022-11-10T14:49:25.166Z,15.30
2022-11-10T14:51:19.351Z,14.68
2022-11-10T14:53:20.771Z,16.50
2022-11-10T14:55:18.381Z,15.98
2022-11-10T14:57:18.423Z,15.80
2022-11-10T14:59:15.125Z,16.48
2022-11-10T15:01:08.644Z,17.10
2022-11-10T15:03:03.312Z,20.73
2022-11-10T15:04:55.687Z,17.30
2022-11-10T15:06:50.325Z,19.90
2022-11-10T15:08:42.961Z,20.33
2022-11-10T15:10:46.729Z,19.83
2022-11-10T15:12:42.062Z,19.48
2022-11-10T15:14:39.613Z,19.15
2022-11-10T15:16:33.393Z,20.83
2022-11-10T15:18:29.473Z,20.90
2022-11-10T15:20:29.681Z,22.77
2022-11-10T15:22:29.822Z,20.73
2022-11-10T15:24:23.715Z,24.02
2022-11-10T15:26:22.195Z,24.23
2022-11-10T15:28:25.802Z,31.45
2022-11-10T15:30:24.144Z,22.90
2022-11-10T15:32:17.933Z,22.55
2022-11-10T15:34:40.038Z,18.30
2022-11-10T15:36:34.126Z,23.15
2022-11-10T15:38:29.952Z,30.00
2022-11-10T15:40:33.396Z,40.30
2022-11-10T15:42:26.106Z,40.30
2022-11-10T15:44:20.726Z,37.70
2022-11-10T15:46:18.151Z,32.67
2022-11-10T15:48:13.821Z,92.07
2022-11-10T15:50:13.443Z,37.42
2022-11-10T15:52:12.989Z,31.65
2022-11-10T15:54:04.729Z,30.70
2022-11-10T15:55:56.605Z,30.02
2022-11-10T15:57:49.139Z,38.10
2022-11-10T15:59:41.525Z,37.92
2022-11-10T16:01:33.930Z,53.10
2022-11-10T16:03:27.920Z,50.25
2022-11-10T16:05:21.200Z,38.30
2022-11-10T16:07:13.330Z,45.67
2022-11-10T16:09:06.474Z,66.40
2022-11-10T16:10:58.842Z,60.00
2022-11-10T16:12:50.533Z,64.75
2022-11-10T16:14:43.332Z,52.72
2022-11-10T16:16:34.962Z,122.57
2022-11-10T16:18:29.398Z,73.72
2022-11-10T16:20:22.657Z,66.22
2022-11-10T16:22:15.286Z,62.47
2022-11-10T16:24:07.633Z,49.42
2022-11-10T16:25:59.856Z,51.45
2022-11-10T16:27:51.959Z,46.17
2022-11-10T16:29:44.312Z,40.08
2022-11-10T16:31:37.239Z,35.72
2022-11-10T16:33:29.397Z,42.95
2022-11-10T16:35:23.533Z,33.85
2022-11-10T16:37:15.296Z,38.28
2022-11-10T16:39:13.013Z,31.15
2022-11-10T16:41:05.878Z,34.70
2022-11-10T16:42:57.859Z,36.40
2022-11-10T16:44:49.419Z,29.13
2022-11-10T16:46:43.699Z,34.22
2022-11-10T16:48:37.825Z,50.67
2022-11-10T16:50:34.116Z,49.05
2022-11-10T16:52:26.482Z,78.75
2022-11-10T16:54:19.104Z,57.40
2022-11-10T16:56:15.390Z,41.97
2022-11-10T16:58:07.207Z,41.05
2022-11-10T16:59:59.562Z,44.85
2022-11-10T17:01:51.522Z,31.85
2022-11-10T17:03:46.660Z,31.30
2022-11-10T17:05:40.402Z,32.42
2022-11-10T17:07:34.848Z,28.77
2022-11-10T17:09:27.246Z,26.45
2022-11-10T17:11:19.656Z,27.52
2022-11-10T17:13:12.231Z,26.92
2022-11-10T17:15:04.059Z,27.42
2022-11-10T17:16:58.698Z,27.42
2022-11-10T17:18:51.239Z,33.83
2022-11-10T17:20:48.325Z,29.35
2022-11-10T17:22:40.705Z,25.17
2022-11-10T17:24:32.799Z,28.85
2022-11-10T17:26:24.670Z,29.98
2022-11-10T17:28:19.313Z,29.23
2022-11-10T17:30:13.291Z,28.77
2022-11-10T17:32:05.451Z,28.27
2022-11-10T17:33:57.512Z,30.42
2022-11-10T17:35:53.459Z,22.42
2022-11-10T17:37:49.447Z,23.27
2022-11-10T17:39:42.124Z,23.92
2022-11-10T17:41:35.258Z,22.60
2022-11-10T17:43:26.967Z,23.63
2022-11-10T17:45:21.563Z,23.73
2022-11-10T17:47:13.813Z,25.48
2022-11-10T17:49:05.707Z,23.58
2022-11-10T17:50:59.238Z,24.38
2022-11-10T17:52:51.402Z,26.90
2022-11-10T17:54:43.390Z,25.67
2022-11-10T17:56:35.734Z,26.92
2022-11-10T17:58:27.610Z,26.00
2022-11-10T18:00:20.374Z,22.83
2022-11-10T18:02:13.100Z,24.63
2022-11-10T18:04:05.271Z,24.20
2022-11-10T18:05:58.763Z,23.13
2022-11-10T18:07:52.097Z,23.67
2022-11-10T18:09:44.136Z,27.20
2022-11-10T18:11:35.615Z,23.65
2022-11-10T18:13:28.037Z,24.17
2022-11-10T18:15:20.527Z,22.95
2022-11-10T18:17:12.503Z,23.67
2022-11-10T18:19:06.039Z,23.77
2022-11-10T18:20:59.333Z,21.58
2022-11-10T18:22:51.308Z,22.27
2022-11-10T18:24:43.811Z,20.77
2022-11-10T18:26:36.009Z,21.45
2022-11-10T18:28:28.095Z,21.67
2022-11-10T18:30:20.629Z,20.13
2022-11-10T18:32:12.593Z,22.60
2022-11-10T18:34:04.525Z,21.92
2022-11-10T18:36:01.422Z,24.88
2022-11-10T18:37:53.084Z,23.02
2022-11-10T18:39:45.304Z,23.33
2022-11-10T18:41:52.766Z,22.80
2022-11-10T18:43:44.717Z,27.48
2022-11-10T18:45:37.313Z,29.45
2022-11-10T18:47:30.564Z,27.77
2022-11-10T18:49:22.734Z,23.45
2022-11-10T18:51:17.017Z,21.95
2022-11-10T18:53:09.858Z,22.90
2022-11-10T18:55:01.878Z,25.30
2022-11-10T18:56:53.770Z,21.30
2022-11-10T18:58:45.694Z,19.60
2022-11-10T19:00:37.294Z,20.55
2022-11-10T19:02:29.160Z,20.73
2022-11-10T19:04:21.056Z,21.75
2022-11-10T19:06:14.103Z,23.20
2022-11-10T19:08:08.173Z,23.45
2022-11-10T19:10:00.678Z,20.17
2022-11-10T19:11:52.645Z,21.33
2022-11-10T19:13:45.925Z,27.88
2022-11-10T19:15:41.570Z,31.27
2022-11-10T19:17:33.798Z,26.52
2022-11-10T19:19:29.702Z,25.67
2022-11-10T19:21:23.840Z,22.50
2022-11-10T19:23:17.789Z,27.23
2022-11-10T19:25:10.075Z,29.83
2022-11-10T19:27:03.016Z,27.63
2022-11-10T19:28:55.563Z,20.45
2022-11-10T19:30:47.571Z,20.98
2022-11-10T19:32:42.857Z,21.70
2022-11-10T19:34:34.640Z,20.60
2022-11-10T19:36:28.241Z,27.83
2022-11-10T19:38:21.819Z,21.45
2022-11-10T19:40:23.506Z,22.45
2022-11-10T19:42:15.670Z,21.80
2022-11-10T19:44:07.582Z,20.77
2022-11-10T19:46:03.076Z,21.10
2022-11-10T19:47:57.247Z,22.38
2022-11-10T19:49:50.105Z,25.30
2022-11-10T19:51:42.166Z,21.10
2022-11-10T19:53:35.629Z,22.77
2022-11-10T19:55:27.669Z,23.58
2022-11-10T19:57:19.685Z,22.25
2022-11-10T19:59:13.035Z,23.58
2022-11-10T20:01:06.010Z,21.40
2022-11-10T20:02:57.721Z,22.35
2022-11-10T20:05:06.534Z,21.63
2022-11-10T20:07:12.110Z,20.63
2022-11-10T20:09:05.442Z,20.48
2022-11-10T20:11:00.269Z,21.08
2022-11-10T20:12:52.206Z,19.85
2022-11-10T20:14:43.711Z,20.58
2022-11-10T20:16:35.798Z,20.30
2022-11-10T20:18:28.118Z,19.77
2022-11-10T20:20:20.657Z,19.08
2022-11-10T20:22:13.184Z,20.83
2022-11-10T20:24:06.747Z,20.63
2022-11-10T20:26:09.910Z,20.52
2022-11-10T20:28:03.663Z,21.23
2022-11-10T20:29:55.800Z,21.05
2022-11-10T20:31:47.725Z,19.95
2022-11-10T20:33:40.291Z,20.42
2022-11-10T20:35:33.720Z,20.10
2022-11-10T20:37:25.032Z,21.60
2022-11-10T20:39:18.888Z,21.73
2022-11-10T20:41:13.524Z,21.27
2022-11-10T20:43:05.723Z,20.65
2022-11-10T20:44:57.308Z,18.85
2022-11-10T20:46:54.467Z,19.52
2022-11-10T20:48:47.844Z,19.92
2022-11-10T20:50:41.438Z,19.38
2022-11-10T20:52:34.277Z,20.17
2022-11-10T20:54:27.332Z,19.13
2022-11-10T20:56:19.108Z,20.17
2022-11-10T20:58:11.720Z,19.17
2022-11-10T21:00:03.476Z,18.95
2022-11-10T21:01:55.435Z,17.95
2022-11-10T21:03:47.676Z,19.60
2022-11-10T21:05:39.731Z,19.08
2022-11-10T21:07:31.874Z,18.58
2022-11-10T21:09:24.212Z,18.92
2022-11-10T21:11:37.037Z,19.17
2022-11-10T21:13:28.687Z,18.25
2022-11-10T21:15:21.610Z,18.67
2022-11-10T21:17:13.264Z,18.52
2022-11-10T21:19:05.020Z,19.30
2022-11-10T21:20:57.004Z,20.38
2022-11-10T21:22:48.898Z,24.17
2022-11-10T21:24:41.000Z,24.23
2022-11-10T21:26:35.824Z,25.95
2022-11-10T21:28:28.103Z,27.13
2022-11-10T21:30:23.989Z,25.92
2022-11-10T21:32:15.658Z,24.55
2022-11-10T21:34:07.627Z,22.90
2022-11-10T21:36:06.553Z,21.95
2022-11-10T21:37:58.336Z,23.40
2022-11-10T21:39:50.770Z,25.40
2022-11-10T21:41:44.348Z,24.00
2022-11-10T21:43:38.709Z,21.35
2022-11-10T21:45:30.543Z,21.13
2022-11-10T21:47:22.218Z,22.65
2022-11-10T21:49:14.507Z,21.73
2022-11-10T21:51:08.811Z,22.10
2022-11-10T21:53:00.861Z,24.10
2022-11-10T21:54:52.729Z,23.98
2022-11-10T21:56:45.954Z,23.73
2022-11-10T21:58:38.633Z,22.23
2022-11-10T22:00:30.539Z,21.25
2022-11-10T22:02:22.584Z,21.42
2022-11-10T22:04:15.544Z,23.23
2022-11-10T22:06:09.085Z,21.58
2022-11-10T22:08:00.567Z,22.25
2022-11-10T22:10:10.617Z,22.05
2022-11-10T22:12:21.407Z,24.88
2022-11-10T22:14:31.097Z,24.15
2022-11-10T22:16:44.620Z,25.02
2022-11-10T22:18:41.345Z,24.45
2022-11-10T22:20:33.047Z,25.63
2022-11-10T22:22:25.086Z,23.75
2022-11-10T22:24:26.837Z,21.45
2022-11-10T22:26:19.116Z,20.67
2022-11-10T22:28:12.338Z,20.95
2022-11-10T22:30:03.907Z,20.90
2022-11-10T22:31:55.846Z,20.25
2022-11-10T22:33:47.322Z,21.02
2022-11-10T22:35:44.816Z,22.98
2022-11-10T22:37:36.349Z,21.67
2022-11-10T22:39:48.695Z,20.83
2022-11-10T22:41:58.037Z,20.85
2022-11-10T22:44:05.364Z,19.35
2022-11-10T22:45:57.452Z,21.92
2022-11-10T22:48:06.990Z,21.88
2022-11-10T22:49:58.716Z,21.20
2022-11-10T22:51:52.470Z,20.13
2022-11-10T22:53:44.366Z,19.73
2022-11-10T22:55:36.177Z,20.33
2022-11-10T22:57:27.662Z,20.63
2022-11-10T22:59:21.216Z,20.90
2022-11-10T23:01:14.388Z,19.70
2022-11-10T23:03:06.573Z,22.63
2022-11-10T23:04:58.639Z,21.77
2022-11-10T23:06:50.301Z,21.10
2022-11-10T23:08:42.506Z,22.75
2022-11-10T23:10:34.615Z,23.15
2022-11-10T23:12:26.188Z,21.80
2022-11-10T23:14:18.395Z,21.88
2022-11-10T23:16:14.215Z,21.17
2022-11-10T23:18:07.010Z,21.77
2022-11-10T23:19:59.129Z,21.15
2022-11-10T23:21:50.770Z,21.33
2022-11-10T23:23:43.575Z,21.92
2022-11-10T23:25:35.347Z,21.90
2022-11-10T23:27:26.929Z,19.63
2022-11-10T23:29:18.939Z,20.60
2022-11-10T23:31:14.399Z,20.83
2022-11-10T23:33:06.069Z,20.60
2022-11-10T23:34:57.935Z,21.58
2022-11-10T23:36:50.307Z,20.85
2022-11-10T23:38:43.277Z,20.08
2022-11-10T23:40:35.144Z,23.67
2022-11-10T23:42:28.756Z,24.42
2022-11-10T23:44:20.705Z,23.65
2022-11-10T23:46:14.362Z,26.83
2022-11-10T23:48:07.112Z,25.27
2022-11-10T23:49:59.332Z,26.17
2022-11-10T23:51:51.201Z,24.55
2022-11-10T23:53:43.821Z,21.38
2022-11-10T23:55:36.088Z,22.50
2022-11-10T23:57:27.937Z,23.95
2022-11-10T23:59:20.064Z,22.02
